• Join FlightAware (Why Join?)
  • Login
  • US Flag 
03:24AM EST


 

Airport Tracker/Info


-or-


 

Live Flight TrackerFlight Track Log ✈ KAP5 ✈ 28-Jun-2013 ✈ KBOS - KACK

Flight Track Log - Related Links

Times and Time Zones

All times are in EDT time to prevent confusion due to time zone crossing. See the KAP5 flight status page for this flight to view local times or setup timezone preferences in your user account.

Time Position Orientation Groundspeed Altitude Reporting Facility
EDT Latitude Longitude Course Direction KTS MPH feet Rate Location/Type
08:38AM 42.3667 -70.9833 124° Southeast 86 99 400  Level KA90
08:39AM 42.3500 -70.9500 124° Southeast 101 116 1,300 720 Climbing KA90
08:40AM 42.3333 -70.9167 124° Southeast 121 139 1,900 720 Climbing KA90
08:41AM 42.3167 -70.8667 114° Southeast 143 165 2,700 720 Climbing KA90
08:42AM 42.3167 -70.8167 90° East 138 159 3,500 720 Climbing KA90
08:44AM 42.2760 -70.7873 109° East  Level FlightAware Approximate
08:51AM 42.1688 -70.4792 116° Southeast  Level FlightAware Approximate
08:52AM 42.1527 -70.4357 116° Southeast  Level FlightAware Approximate
08:53AM 42.1366 -70.3922 117° Southeast  Level FlightAware Approximate
08:54AM 42.1216 -70.3480 114° Southeast  Level FlightAware Approximate
08:55AM 42.1069 -70.3036 114° Southeast  Level FlightAware Approximate
08:56AM 42.0922 -70.2593 114° Southeast  Level FlightAware Approximate
08:57AM 42.0774 -70.2150 114° Southeast  Level FlightAware Approximate
08:58AM 42.0626 -70.1707 114° Southeast  Level FlightAware Approximate
08:59AM 42.0478 -70.1264 114° Southeast  Level FlightAware Approximate
09:00AM 42.0330 -70.0822 114° Southeast  Level FlightAware Approximate
09:01AM 42.0182 -70.0379 114° Southeast  Level FlightAware Approximate
09:02AM 41.9843 -70.0333 180° South  Level FlightAware Approximate
09:03AM 41.9483 -70.0333 180° South  Level FlightAware Approximate
09:04AM 41.9123 -70.0333 180° South  Level FlightAware Approximate
09:05AM 41.8762 -70.0333 180° South  Level FlightAware Approximate
09:06AM 41.8401 -70.0333 180° South  Level FlightAware Approximate
09:07AM 41.8041 -70.0333 180° South  Level FlightAware Approximate
09:08AM 41.7681 -70.0333 180° South  Level FlightAware Approximate
09:09AM 41.7320 -70.0333 180° South  Level FlightAware Approximate
09:10AM 41.6959 -70.0333 180° South  Level FlightAware Approximate
09:11AM 41.6599 -70.0333 180° South  Level FlightAware Approximate
09:12AM 41.6239 -70.0333 180° South  Level FlightAware Approximate
09:13AM 41.5880 -70.0357 189° South  Level FlightAware Approximate
09:14AM 41.5523 -70.0429 189° South  Level FlightAware Approximate
09:15AM 41.5167 -70.0500 189° South  Level FlightAware Approximate
09:16AM 41.4806 -70.0500 180° South  Level FlightAware Approximate
09:17AM 41.4446 -70.0500 180° South  Level FlightAware Approximate
09:18AM 41.4085 -70.0500 180° South  Level FlightAware Approximate
09:19AM 41.3725 -70.0500 180° South  Level FlightAware Approximate
09:20AM 41.3364 -70.0500 180° South  Level FlightAware Approximate
09:21AM 41.3004 -70.0500 180° South  Level FlightAware Approximate
09:22AM 41.2643 -70.0500 180° South  Level FlightAware Approximate
09:23AM 41.2500 -70.0500 180° South  Level FlightAware Approximate
09:24AM 41.2531 -70.0603 180° South  Level Estimated
09:25AM 41.2531 -70.0603 180° South  Level Estimated